Home > Products > Valid Products > TAF

000
FTUS41 KCLE 030100 AAA
TAFERI
TAF AMD
KERI 030115Z 0301/0324 22003KT P6SM VCSH SCT015 BKN040
      TEMPO 0301/0303 5SM -SHRA BKN015
     FM030300 VRB03KT P6SM SCT250
      TEMPO 0310/0312 3SM BR
     FM031400 24006KT P6SM SCT035
     FM031600 31006KT P6SM SKC=



000
FTUS41 KCLE 022300
TAFFDY
TAF
KFDY 022335Z 0300/0324 33003KT P6SM SCT025 BKN250
      TEMPO 0300/0301 5SM -SHRA OVC025
     FM030300 VRB03KT P6SM SCT250
     FM030900 VRB03KT 3SM BR SKC
     FM031400 20006KT P6SM SKC=



000
FTUS41 KCLE 022300
TAFYNG
TAF
KYNG 022335Z 0300/0324 28006KT P6SM SCT025 BKN040
     FM030300 VRB03KT P6SM BKN250
     FM030900 VRB03KT 3SM BR SCT004
      TEMPO 0311/0313 2SM BR BKN004
     FM031400 22003KT P6SM BKN010
     FM031600 22006KT P6SM SCT035=



000
FTUS41 KCLE 022300
TAFCLE
TAF
KCLE 022335Z 0300/0406 26006KT P6SM SCT025 BKN100
     FM030200 VRB03KT P6SM SCT250
      TEMPO 0310/0312 3SM BR
     FM031400 24003KT P6SM SCT035
     FM031900 36006KT P6SM SKC
     FM040100 VRB03KT P6SM SKC=



000
FTUS41 KCLE 022300
TAFTOL
TAF
KTOL 022335Z 0300/0324 32006KT P6SM SCT250
     FM030200 VRB03KT P6SM SKC
     FM030900 VRB03KT 3SM BR SKC
     FM031400 20006KT P6SM SKC=



000
FTUS41 KCLE 022300
TAFCAK
TAF
KCAK 022335Z 0300/0324 26006KT P6SM SCT025 BKN250
      TEMPO 0301/0302 5SM -SHRA OVC025
     FM030300 VRB03KT P6SM BKN250
     FM030900 VRB03KT 3SM BR SCT004
      TEMPO 0311/0313 1SM BR BKN004
     FM031400 24006KT P6SM SCT035=



000
FTUS41 KCLE 022300
TAFERI
TAF
KERI 022335Z 0300/0324 27006KT P6SM VCSH SCT025 BKN040
     FM030300 VRB03KT P6SM SCT250
      TEMPO 0310/0312 3SM BR
     FM031400 24006KT P6SM SCT035
     FM031600 31006KT P6SM SKC=



000
FTUS41 KCLE 022300
TAFMFD
TAF
KMFD 022335Z 0300/0324 26005KT P6SM SCT025 BKN250
      TEMPO 0301/0302 5SM -SHRA OVC025
     FM030300 VRB03KT P6SM BKN250
     FM030900 VRB03KT 3SM BR SCT004
      TEMPO 0311/0313 1SM BR BKN004
     FM031400 22005KT P6SM SCT035=



000
FTUS41 KCLE 022100 AAA
TAFCLE
TAF AMD
KCLE 022142Z 0222/0324 25010KT P6SM VCSH BKN025 BKN080
     FM022300 27008KT P6SM BKN035
     FM030200 27004KT P6SM FEW035
      TEMPO 0310/0312 3SM BR=



000
FTUS41 KCLE 022100 AAA
TAFYNG
TAF AMD
KYNG 022134Z 0222/0318 27010G20KT P6SM BKN025 BKN050
     FM030100 27006KT P6SM SCT080
     FM030400 VRB03KT P6SM SCT035
      TEMPO 0309/0312 3SM BR=



000
FTUS41 KCLE 022100 AAA
TAFCAK
TAF AMD
KCAK 022132Z 0222/0318 27010KT P6SM SCT020 BKN050
      TEMPO 0222/0224 BKN020
     FM030200 VRB03KT 6SM BR SCT080
     FM030900 VRB03KT 3SM BR SCT015
      TEMPO 0310/0312 2SM BR
     FM031300 25005KT P6SM FEW050=



000
FTUS41 KCLE 022100 AAA
TAFCLE
TAF AMD
KCLE 022102Z 0221/0324 25010KT P6SM VCSH SCT025 BKN080
     FM022300 27008KT P6SM BKN035
     FM030200 27004KT P6SM FEW035
      TEMPO 0310/0312 3SM BR=



000
FTUS41 KCLE 021700 CCA
TAFERI
TAF COR
KERI 021747Z 0218/0318 21007KT P6SM OVC035
      TEMPO 0218/0220 2SM SHRA OVC015
     FM022100 27008KT P6SM OVC025
      TEMPO 0221/0223 5SM -SHRA OVC015
     FM022300 27006KT P6SM BKN035
     FM030400 VRB03KT P6SM SCT035
      TEMPO 0309/0312 3SM BR=



000
FTUS41 KCLE 021700
TAFTOL
TAF
KTOL 021726Z 0218/0318 23010KT P6SM OVC025
      TEMPO 0218/0219 5SM -SHRA OVC008
     FM021900 27010KT P6SM BKN035
     FM030000 27004KT P6SM SCT250
      TEMPO 0309/0312 3SM BR=



000
FTUS41 KCLE 021700
TAFCLE
TAF
KCLE 021726Z 0218/0324 23006KT P6SM VCSH OVC050
     FM022000 26010KT P6SM OVC025
      TEMPO 0220/0222 3SM SHRA OVC015
     FM022200 27008KT P6SM BKN035
     FM030200 27004KT P6SM FEW035
      TEMPO 0310/0312 3SM BR=



000
FTUS41 KCLE 021700
TAFERI
TAF
KERI 021726Z 0218/0318 21007KT P6SM OVC035
      TEMPO 0218/0220 3SM SHRA OVC015
     FM022100 27008KT P6SM OVC025
      TEMPO 0221/0223 5SM -SHRA OVC015
     FM022300 27006KT P6SM BKN035
     FM030400 VRB03KT P6SM SCT035
      TEMPO 0309/0312 3SM BR=



000
FTUS41 KCLE 021700
TAFCAK
TAF
KCAK 021726Z 0218/0318 22006KT P6SM OVC035
      TEMPO 0218/0222 3SM SHRA OVC015
     FM022200 27008KT P6SM BKN050
     FM030200 VRB03KT 6SM BR FEW050
     FM030900 VRB03KT 3SM BR SCT015
      TEMPO 0310/0312 2SM BR
     FM031300 25005KT P6SM FEW050=



000
FTUS41 KCLE 021700
TAFYNG
TAF
KYNG 021726Z 0218/0318 22006KT P6SM OVC035
      TEMPO 0218/0220 3SM SHRA OVC015
     FM022100 27008KT P6SM OVC025
      TEMPO 0221/0223 5SM -SHRA OVC015
     FM022300 27006KT P6SM BKN035
     FM030400 VRB03KT P6SM SCT035
      TEMPO 0309/0312 3SM BR=



000
FTUS41 KCLE 021700
TAFMFD
TAF
KMFD 021726Z 0218/0318 21008KT P6SM OVC035
      TEMPO 0219/0221 -SHRA OVC015
     FM022100 27008KT P6SM BKN035
     FM030200 VRB03KT 6SM BR FEW035
     FM030900 VRB03KT 3SM BR SCT015
      TEMPO 0310/0312 2SM BR
     FM031300 25005KT P6SM FEW050=



000
FTUS41 KCLE 021700
TAFFDY
TAF
KFDY 021726Z 0218/0318 23010KT P6SM OVC050
      TEMPO 0218/0220 5SM -SHRA OVC015
     FM022000 27010KT P6SM BKN035
     FM030000 27004KT P6SM SCT250
      TEMPO 0309/0312 3SM BR=



000
FTUS41 KCLE 021400 AAA
TAFCLE
TAF AMD
KCLE 021455Z 0215/0318 21006KT P6SM OVC100
      TEMPO 0216/0219 4SM -SHRA OVC035
     FM022000 25010KT P6SM VCSH BKN050
     FM022200 25008KT P6SM SCT050 BKN250
     FM030200 22005KT P6SM SCT120 BKN250
     FM030800 20004KT 5SM BR SCT250
      TEMPO 0309/0313 3SM BR
     FM031500 22004KT P6SM SCT250=



000
FTUS41 KCLE 021400 AAA
TAFMFD
TAF AMD
KMFD 021444Z 0215/0312 18008KT P6SM OVC100
      TEMPO 0215/0218 5SM -SHRA OVC035
     FM021900 24010KT P6SM VCSH BKN080
     FM022200 23008KT P6SM SCT080 BKN250
     FM030300 20003KT 5SM BR BKN060
     FM030900 20003KT 1SM BR OVC012=



000
FTUS41 KCLE 021400 AAA
TAFFDY
TAF AMD
KFDY 021443Z 0215/0312 20008KT P6SM VCSH OVC080
     FM021700 25012KT P6SM BKN250
     FM021900 25008KT P6SM SCT250
     FM030200 25003KT 5SM BR SCT250
      TEMPO 0306/0308 2SM BR BKN012
     FM030800 VRB03KT 1SM BR BKN012=



000
FTUS41 KCLE 021400 AAA
TAFTOL
TAF AMD
KTOL 021442Z 0215/0312 23010KT P6SM OVC070
      TEMPO 0215/0218 5SM -SHRA
     FM021900 25008KT P6SM SCT250
     FM030200 25003KT 6SM BR SCT250
     FM030600 VRB03KT 3SM BR SCT012 BKN100=



000
FTUS41 KCLE 021100 CCB
TAFTOL
TAF COR
KTOL 021136Z 0212/0312 23011KT 6SM -SHRA VCTS BKN008CB OVC050
      TEMPO 0212/0214 5SM -SHRA BR OVC008
     FM021400 25010KT P6SM BKN012 OVC080
     FM021700 25011KT P6SM VCSH SCT080 BKN250
     FM021900 25008KT P6SM SCT250
     FM030200 25003KT 6SM BR SCT250
     FM030600 VRB03KT 3SM BR SCT012 BKN100=



000
FTUS41 KCLE 021100 CCA
TAFTOL
TAF COR
KTOL 021131Z 0212/0312 23011KT 6SM -SHRA VCTS BKN012CB OVC100
      TEMPO 0212/0214 5SM -SHRA BR OVC012
     FM021400 25010KT P6SM BKN012 OVC080
     FM021700 25011KT P6SM VCSH SCT080 BKN250
     FM021900 25008KT P6SM SCT250
     FM030200 25003KT 6SM BR SCT250
     FM030600 VRB03KT 3SM BR SCT012 BKN100=



000
FTUS41 KCLE 021100 CCA
TAFCAK
TAF COR
KCAK 021125Z 0212/0312 22009KT 4SM BR BKN006 BKN035
     FM021300 24011KT P6SM -SHRA SCT006 OVC025
      TEMPO 0213/0216 5SM -TSRA BR BKN012CB
     FM021600 24012KT P6SM BKN012
     FM022000 25010KT P6SM VCSH BKN035
     FM022200 25008KT P6SM SCT035 BKN120
     FM030200 22005KT P6SM SCT120 BKN250
     FM030800 20004KT 5SM BR BKN250
      TEMPO 0309/0312 3SM BR BKN012=



000
FTUS41 KCLE 021100
TAFERI
TAF
KERI 021120Z 0212/0312 21007KT P6SM SCT035 BKN060
      TEMPO 0212/0215 BKN035
     FM021500 25012KT 6SM -RA BR BKN035
      TEMPO 0215/0219 4SM -SHRA BR BKN025
     FM021900 26014KT P6SM BKN035 OVC060
     FM022100 25011KT P6SM SCT045 BKN120
     FM030000 22006KT P6SM SCT045 BKN250
     FM030300 21004KT 6SM BR BKN250
     FM030900 21005KT 5SM BR BKN045=



000
FTUS41 KCLE 021100
TAFFDY
TAF
KFDY 021120Z 0212/0312 26011G18KT 6SM -SHRA BKN035 OVC100
      TEMPO 0212/0214 4SM -TSRA BR OVC025CB
     FM021400 25012KT P6SM BKN025 OVC080
     FM021700 25012KT P6SM VCSH SCT080 BKN250
     FM021900 25008KT P6SM SCT250
     FM030200 25003KT 5SM BR SCT250
      TEMPO 0306/0308 2SM BR BKN012
     FM030800 VRB03KT 1SM BR BKN012=



000
FTUS41 KCLE 021100
TAFYNG
TAF
KYNG 021120Z 0212/0312 20007KT 5SM BR SCT003 BKN035
      TEMPO 0212/0214 6SM BR BKN003
     FM021400 24011KT P6SM -SHRA SCT012 OVC025
      TEMPO 0214/0217 5SM -TSRA BR BKN012CB
     FM021700 24012KT P6SM BKN012
     FM022100 25010KT P6SM BKN035
     FM030000 25008KT P6SM SCT035 BKN120
     FM030400 22005KT P6SM SCT120 BKN250
     FM030800 20004KT 5SM BR BKN250
      TEMPO 0309/0312 3SM BR BKN012=



000
FTUS41 KCLE 021100
TAFCAK
TAF
KCAK 021120Z 0212/0312 22009KT 6SM BR BKN003 BKN035
     FM021300 24011KT P6SM -SHRA SCT012 OVC025
      TEMPO 0213/0216 5SM -TSRA BR BKN012CB
     FM021600 24012KT P6SM BKN012
     FM022000 25010KT P6SM VCSH BKN035
     FM022200 25008KT P6SM SCT035 BKN120
     FM030200 22005KT P6SM SCT120 BKN250
     FM030800 20004KT 5SM BR BKN250
      TEMPO 0309/0312 3SM BR BKN012=



000
FTUS41 KCLE 021100
TAFCLE
TAF
KCLE 021120Z 0212/0318 20009KT P6SM SCT050 BKN120
     FM021300 24011KT P6SM -SHRA SCT025 OVC045
      TEMPO 0213/0216 5SM -SHRA BR BKN025
     FM021600 24012KT P6SM BKN025
     FM022000 25010KT P6SM VCSH BKN050
     FM022200 25008KT P6SM SCT050 BKN250
     FM030200 22005KT P6SM SCT120 BKN250
     FM030800 20004KT 5SM BR SCT250
      TEMPO 0309/0313 3SM BR
     FM031500 22004KT P6SM SCT250=



000
FTUS41 KCLE 021100
TAFMFD
TAF
KMFD 021120Z 0212/0312 22008KT P6SM OVC040
      TEMPO 0212/0213 5SM BR BKN025
     FM021300 24009KT 6SM -SHRA BKN025
      TEMPO 0213/0216 4SM TSRA BR OVC012CB
     FM021600 24009KT P6SM BKN025 OVC080
     FM021900 24011KT P6SM VCSH BKN080
     FM022200 23008KT P6SM SCT080 BKN250
     FM030300 20003KT 5SM BR BKN060
     FM030900 20003KT 1SM BR OVC012=



000
FTUS41 KCLE 021100
TAFTOL
TAF
KTOL 021120Z 0212/0312 23011KT 6SM -SHRA VCTS BKN035CB OVC100
      TEMPO 0212/0214 5SM -SHRA BR OVC035
     FM021400 25010KT P6SM BKN025 OVC080
     FM021700 25011KT P6SM VCSH SCT080 BKN250
     FM021900 25008KT P6SM SCT250
     FM030200 25003KT 6SM BR SCT250
     FM030600 VRB03KT 3SM BR SCT012 BKN100=



000
FTUS41 KCLE 021000 AAC
TAFCAK
TAF AMD
KCAK 021028Z 0210/0306 23006KT 5SM BR BKN025
      TEMPO 0210/0213 6SM BR BKN004
     FM021300 24009KT 4SM -SHRA BR VCTS SCT015CB BKN025
      TEMPO 0213/0217 2SM -SHRA BR BKN015
     FM021700 24011KT P6SM VCSH BKN015
     FM022100 24010KT P6SM BKN035
     FM030000 24008KT P6SM SCT045 BKN250
     FM030300 21005KT P6SM SCT050 BKN250=



000
FTUS41 KCLE 021000 AAB
TAFERI
TAF AMD
KERI 021000Z 0210/0306 22007KT P6SM SCT025 BKN060
      TEMPO 0211/0215 BKN025
     FM021500 25012KT 6SM -RA BR VCTS BKN025CB
      TEMPO 0215/0218 4SM SHRA BR BKN015
     FM021800 26014KT P6SM VCSH BKN015 OVC060
     FM022100 25011KT P6SM SCT045 BKN120
     FM030000 22006KT P6SM SCT045 BKN250
     FM030300 21004KT 6SM HZ BKN250=



000
FTUS41 KCLE 020900 AAC
TAFMFD
TAF AMD
KMFD 020959Z 0210/0306 22005KT P6SM SCT020 BKN035
     FM021100 25009KT 5SM -SHRA BR VCTS OVC025CB
      TEMPO 0211/0215 3SM SHRA BR OVC006
     FM021500 24009KT P6SM VCSH BKN012
     FM021800 24009KT P6SM SCT035 BKN060
     FM022100 23008KT P6SM SCT060 BKN250
     FM030200 20003KT 5SM HZ BKN060=



000
FTUS41 KCLE 020900 AAB
TAFCAK
TAF AMD
KCAK 020959Z 0210/0306 23006KT 5SM BR BKN025
      TEMPO 0210/0213 3SM BR SCT025
     FM021300 24009KT 4SM -SHRA BR VCTS SCT015CB BKN025
      TEMPO 0213/0217 2SM -SHRA BR BKN015
     FM021700 24011KT P6SM VCSH BKN015
     FM022100 24010KT P6SM BKN035
     FM030000 24008KT P6SM SCT045 BKN250
     FM030300 21005KT P6SM SCT050 BKN250=



000
FTUS41 KCLE 020900 AAA
TAFERI
TAF AMD
KERI 020911Z 0209/0306 22011KT P6SM BKN025
     FM021500 25012KT 6SM -RA BR VCTS BKN025CB
      TEMPO 0215/0218 4SM SHRA BR BKN015
     FM021800 26014KT P6SM VCSH BKN015 OVC060
     FM022100 25011KT P6SM SCT045 BKN120
     FM030000 22006KT P6SM SCT045 BKN250
     FM030300 21004KT 6SM HZ BKN250=



000
FTUS41 KCLE 020800 AAA
TAFYNG
TAF AMD
KYNG 020857Z 0209/0306 22008KT P6SM BKN015
      TEMPO 0209/0212 SCT015
     FM021400 25010KT 5SM -SHRA BR VCTS SCT015CB BKN035
      TEMPO 0214/0218 2SM -SHRA BR BKN015
     FM021800 25011KT P6SM VCSH BKN015
     FM022200 25010KT P6SM BKN035
     FM030000 25006KT P6SM SCT045 BKN250
     FM030300 21004KT P6SM BKN050=



000
FTUS41 KCLE 020800 AAA
TAFCLE
TAF AMD
KCLE 020852Z 0209/0312 23009KT P6SM SCT045
      TEMPO 0209/0210 BKN045
     FM021000 23010KT P6SM BKN045
     FM021200 23010KT 6SM -SHRA BR VCTS SCT025CB BKN045
      TEMPO 0212/0216 4SM -SHRA BR BKN025
     FM021600 24012KT P6SM VCSH BKN025
     FM022000 25010KT P6SM BKN050
     FM022200 25008KT P6SM SCT050 BKN250
     FM030200 22005KT P6SM SCT120 BKN250
     FM030800 20004KT 5SM BR SCT250=



000
FTUS41 KCLE 020800 AAB
TAFMFD
TAF AMD
KMFD 020833Z 0209/0306 22005KT P6SM SCT020 BKN030
     FM021100 25009KT 5SM -SHRA BR VCTS OVC020CB
      TEMPO 0211/0215 3SM SHRA BR OVC006
     FM021500 24009KT P6SM VCSH BKN012
     FM021800 24009KT P6SM SCT035 BKN060
     FM022100 23008KT P6SM SCT060 BKN250
     FM030200 20003KT 5SM HZ BKN060=



000
FTUS41 KCLE 020800 AAA
TAFCAK
TAF AMD
KCAK 020807Z 0208/0306 22008KT P6SM SCT025
      TEMPO 0208/0211 BKN025
     FM021100 23010KT P6SM BKN025
     FM021300 24009KT 4SM -SHRA BR VCTS SCT015CB BKN025
      TEMPO 0213/0217 2SM -SHRA BR BKN015
     FM021700 24011KT P6SM VCSH BKN015
     FM022100 24010KT P6SM BKN035
     FM030000 24008KT P6SM SCT045 BKN250
     FM030300 21005KT P6SM SCT050 BKN250=



000
FTUS41 KCLE 020600 AAA
TAFMFD
TAF AMD
KMFD 020611Z 0206/0306 24011G18KT P6SM SCT035
      TEMPO 0206/0208 BKN035
     FM020800 23009KT P6SM SCT020 BKN035
     FM021100 25009KT 5SM -SHRA BR VCTS OVC020CB
      TEMPO 0211/0215 3SM SHRA BR OVC006
     FM021500 24009KT P6SM VCSH BKN012
     FM021800 24009KT P6SM SCT035 BKN060
     FM022100 23008KT P6SM SCT060 BKN250
     FM030200 20003KT 5SM HZ BKN060=



000
FTUS41 KCLE 020500
TAFTOL
TAF
KTOL 020520Z 0206/0306 22007KT P6SM SCT045 BKN250
      TEMPO 0206/0210 BKN045
     FM021000 23007KT 6SM -SHRA OVC035
      TEMPO 0210/0214 5SM -SHRA BR OVC015
     FM021400 25010KT P6SM BKN015 BKN080
     FM021700 25011KT P6SM SCT080 BKN250
     FM022100 25008KT P6SM SCT250
     FM030200 25003KT 5SM HZ SCT250=



000
FTUS41 KCLE 020500
TAFMFD
TAF
KMFD 020520Z 0206/0306 21011KT P6SM SCT035
      TEMPO 0206/0208 BKN035
     FM020800 23009KT P6SM SCT020 BKN035
     FM021100 25009KT 5SM -SHRA BR VCTS OVC020CB
      TEMPO 0211/0215 3SM SHRA BR OVC006
     FM021500 24009KT P6SM VCSH BKN012
     FM021800 24009KT P6SM SCT035 BKN060
     FM022100 23008KT P6SM SCT060 BKN250
     FM030200 20003KT 5SM HZ BKN060=



000
FTUS41 KCLE 020500
TAFCLE
TAF
KCLE 020520Z 0206/0312 20009KT P6SM SCT045
      TEMPO 0206/0210 BKN045
     FM021000 23010KT P6SM BKN045
     FM021200 23010KT 6SM -SHRA BR VCTS SCT025CB BKN045
      TEMPO 0212/0216 4SM -SHRA BR BKN025
     FM021600 24012KT P6SM VCSH BKN025
     FM022000 25010KT P6SM BKN050
     FM022200 25008KT P6SM SCT050 BKN250
     FM030200 22005KT P6SM SCT120 BKN250
     FM030800 20004KT 5SM BR SCT250=



000
FTUS41 KCLE 020500
TAFYNG
TAF
KYNG 020520Z 0206/0306 22008G16KT P6SM SCT045
      TEMPO 0208/0212 BKN045
     FM021200 23008KT P6SM BKN045
     FM021400 25010KT 5SM -SHRA BR VCTS SCT015CB BKN035
      TEMPO 0214/0218 2SM -SHRA BR BKN015
     FM021800 25011KT P6SM VCSH BKN015
     FM022200 25010KT P6SM BKN035
     FM030000 25006KT P6SM SCT045 BKN250
     FM030300 21004KT P6SM BKN050=



000
FTUS41 KCLE 020500
TAFERI
TAF
KERI 020520Z 0206/0306 21009KT P6SM VCTS BKN035CB
      TEMPO 0206/0208 5SM -SHRA BR BKN025
     FM020800 22011KT P6SM VCSH BKN035
     FM021000 22012KT P6SM BKN045
     FM021500 25012KT 6SM -RA BR VCTS BKN025CB
      TEMPO 0215/0218 4SM SHRA BR BKN015
     FM021800 26014KT P6SM VCSH BKN015 OVC060
     FM022100 25011KT P6SM SCT045 BKN120
     FM030000 22006KT P6SM SCT045 BKN250
     FM030300 21004KT 6SM HZ BKN250=



000
FTUS41 KCLE 020500
TAFCAK
TAF
KCAK 020520Z 0206/0306 22008KT P6SM SCT045
      TEMPO 0207/0211 BKN045
     FM021100 23010KT P6SM BKN045
     FM021300 24009KT 4SM -SHRA BR VCTS SCT015CB BKN035
      TEMPO 0213/0217 2SM -SHRA BR BKN015
     FM021700 24011KT P6SM VCSH BKN015
     FM022100 24010KT P6SM BKN035
     FM030000 24008KT P6SM SCT045 BKN250
     FM030300 21005KT P6SM SCT050 BKN250=



000
FTUS41 KCLE 020500
TAFFDY
TAF
KFDY 020520Z 0206/0306 22007KT P6SM SCT045 BKN250
      TEMPO 0206/0210 BKN045
     FM021000 23005KT 6SM -SHRA BR VCTS OVC035CB
      TEMPO 0210/0214 4SM SHRA BR OVC012
     FM021400 24011KT P6SM BKN015 BKN080
     FM021700 25011KT P6SM SCT080 BKN250
     FM022100 24008KT P6SM SCT250
     FM030200 22003KT 5SM HZ SCT250=



000
FTUS41 KCLE 020200 AAA
TAFCLE
TAF AMD
KCLE 020253Z 0203/0306 21008KT P6SM SCT060 BKN250
     FM021100 21006KT 5SM -RA OVC030
     FM021300 23006KT 4SM -RA BR OVC012
     FM021600 27008KT P6SM BKN015 OVC080
     FM021900 27008KT P6SM SCT020 BKN080
     FM022100 27006KT P6SM SCT080 BKN250=



000
FTUS41 KCLE 020200 AAA
TAFERI
TAF AMD
KERI 020210Z 0202/0224 20012KT P6SM SCT050 BKN250
      TEMPO 0203/0204 6SM -SHRA OVC050
     FM021200 22008KT 6SM -RA OVC030
     FM021500 24008KT 5SM -RA BR OVC012
     FM021800 26010KT P6SM BKN015 OVC080
     FM022000 26008KT P6SM SCT025 BKN080
     FM022200 26006KT P6SM SCT080 BKN250=



000
FTUS41 KCLE 012300
TAFFDY
TAF
KFDY 012330Z 0200/0224 22008KT P6SM SCT060 BKN250
     FM020900 22006KT 5SM -RA BR OVC030
     FM021100 24006KT 4SM RA BR OVC009
     FM021600 27008KT P6SM BKN012 BKN080
     FM021800 27008KT P6SM SCT080 BKN250
     FM022200 27006KT P6SM SCT250=



000
FTUS41 KCLE 012300
TAFCLE
TAF
KCLE 012330Z 0200/0306 21012G20KT P6SM VCSH BKN050
     FM020100 21010KT P6SM SCT060 BKN250
     FM021100 21006KT 5SM -RA OVC030
     FM021300 23006KT 4SM -RA BR OVC012
     FM021600 27008KT P6SM BKN015 OVC080
     FM021900 27008KT P6SM SCT020 BKN080
     FM022100 27006KT P6SM SCT080 BKN250=



000
FTUS41 KCLE 012300
TAFYNG
TAF
KYNG 012330Z 0200/0224 20010G18KT P6SM VCSH BKN050 BKN100
     FM020200 20008KT P6SM SCT060 BKN250
     FM021200 21006KT 5SM -RA BR OVC025
     FM021500 24006KT 3SM RA BR OVC008
     FM021900 27008KT P6SM BKN012 OVC080
     FM022200 27008KT P6SM SCT020 BKN080=



000
FTUS41 KCLE 012300
TAFTOL
TAF
KTOL 012330Z 0200/0224 22007KT P6SM SCT060 BKN250
     FM021000 22005KT 6SM -RA OVC035
     FM021200 24005KT 5SM -RA BR OVC015
     FM021500 27008KT P6SM BKN015 BKN080
     FM021700 27008KT P6SM SCT080 BKN250
     FM022100 27005KT P6SM SCT250=



000
FTUS41 KCLE 012300
TAFERI
TAF
KERI 012330Z 0200/0224 20012KT P6SM SCT050 BKN250
     FM021200 22008KT 6SM -RA OVC030
     FM021500 24008KT 5SM -RA BR OVC012
     FM021800 26010KT P6SM BKN015 OVC080
     FM022000 26008KT P6SM SCT025 BKN080
     FM022200 26006KT P6SM SCT080 BKN250=



000
FTUS41 KCLE 012300
TAFMFD
TAF
KMFD 012330Z 0200/0224 21010KT P6SM SCT060 BKN250
     FM021000 21006KT 5SM -RA BR OVC025
     FM021300 24006KT 3SM RA BR OVC006
     FM021700 27008KT P6SM BKN010 OVC080
     FM021900 27008KT P6SM SCT025 BKN080
     FM022300 27004KT P6SM SCT080 BKN250=



000
FTUS41 KCLE 012300
TAFCAK
TAF
KCAK 012330Z 0200/0224 21012G20KT P6SM VCSH BKN050 BKN100
     FM020100 21008KT P6SM SCT060 BKN250
     FM021100 21006KT 4SM -RA BR OVC025
     FM021400 24006KT 3SM RA BR OVC007
     FM021800 27008KT P6SM BKN012 OVC080
     FM022000 27008KT P6SM SCT025 BKN080=



000
FTUS41 KCLE 012100 AAA
TAFCLE
TAF AMD
KCLE 012107Z 0121/0224 20015G25KT P6SM SCT040
     FM012300 20012G20KT P6SM VCTS BKN050CB
     FM020200 22008KT P6SM BKN070
     FM021100 22006KT 3SM RA BR VCTS OVC025CB
     FM021400 26008KT 5SM -RA BR OVC015
     FM021700 26008KT P6SM BKN025 OVC100
     FM021900 26006KT P6SM BKN100 OVC250=



000
FTUS41 KCLE 011700
TAFYNG
TAF
KYNG 011722Z 0118/0218 21010KT P6SM BKN025
      TEMPO 0118/0120 SCT025 BKN035
     FM012000 21010G18KT P6SM BKN035
     FM021200 21008KT 3SM SHRA OVC025=



000
FTUS41 KCLE 011700
TAFFDY
TAF
KFDY 011722Z 0118/0218 20012G20KT P6SM BKN035
      TEMPO 0121/0124 VRB15G30KT 3SM TSRA OVC025CB
     FM020900 23010KT 3SM SHRA VCTS OVC025CB
     FM021500 27010KT P6SM BKN035=



000
FTUS41 KCLE 011700
TAFCLE
TAF
KCLE 011722Z 0118/0224 20012G20KT P6SM BKN035
      TEMPO 0118/0120 BKN025
     FM012300 20010G18KT P6SM VCTS BKN050CB
     FM020200 22008KT P6SM BKN070
     FM021100 23006KT 3SM SHRA VCTS OVC025CB
     FM021600 25008KT 5SM -SHRA OVC035=



000
FTUS41 KCLE 011700
TAFERI
TAF
KERI 011722Z 0118/0218 19012KT P6SM BKN025
      TEMPO 0118/0120 SCT025 BKN035
     FM012000 21010G18KT P6SM BKN050
     FM021300 21008KT 5SM -SHRA OVC030=



000
FTUS41 KCLE 011700
TAFMFD
TAF
KMFD 011722Z 0118/0218 20012G20KT P6SM SCT040
      TEMPO 0123/0202 3SM TSRA OVC025CB
     FM021000 21010KT 3SM SHRA BR VCTS OVC025CB
     FM021400 22005KT 5SM -SHRA OVC015=



000
FTUS41 KCLE 011700
TAFTOL
TAF
KTOL 011722Z 0118/0218 20012G20KT P6SM BKN025
      TEMPO 0118/0119 SCT025 BKN035
     FM011900 22012G20KT P6SM BKN035
      TEMPO 0121/0124 VRB15G30KT 3SM TSRA OVC025CB
     FM020900 23010KT 5SM -SHRA OVC025
     FM021400 27010KT P6SM BKN035=



000
FTUS41 KCLE 011700
TAFCAK
TAF
KCAK 011722Z 0118/0218 21010G18KT P6SM BKN035
      TEMPO 0118/0120 BKN015
     FM012300 22010G18KT P6SM VCTS BKN050CB
     FM020200 22008KT P6SM BKN070
     FM021100 23006KT 3SM SHRA VCTS OVC025CB
     FM021600 24008KT 5SM -SHRA OVC035=



000
FTUS41 KCLE 011600 AAA
TAFMFD
TAF AMD
KMFD 011621Z 0116/0212 19012KT P6SM SCT025
      TEMPO 0116/0118 BKN025
     FM011800 20012G20KT P6SM SCT040
      TEMPO 0123/0202 3SM TSRA OVC025CB
     FM020900 21010KT 5SM -SHRA BR OVC025=



000
FTUS41 KCLE 011400 AAA
TAFCLE
TAF AMD
KCLE 011452Z 0115/0218 19010KT P6SM SCT015 BKN045
      TEMPO 0115/0118 BKN015
     FM011800 21012G18KT P6SM SCT045
     FM020200 20010KT P6SM VCSH SCT035 BKN120
     FM020600 20010KT 5SM HZ VCTS BKN035CB
     FM021200 22012KT 5SM BR BKN050=



000
FTUS41 KCLE 011100
TAFTOL
TAF
KTOL 011120Z 0112/0212 20003KT P6SM SCT015
      TEMPO 0112/0115 5SM BR BKN015
     FM011500 21010KT P6SM BKN025
     FM011700 22012KT P6SM SCT045
     FM012100 23014KT P6SM VCTS BKN045CB
     FM020200 22006KT 6SM HZ VCTS BKN045CB OVC120
     FM020900 23010KT 5SM -SHRA BR VCTS OVC025CB=



000
FTUS41 KCLE 011100
TAFMFD
TAF
KMFD 011120Z 0112/0212 20005KT P6SM OVC006
     FM011600 21012KT P6SM BKN025
     FM011800 20014G20KT P6SM SCT045
     FM020200 22009KT P6SM VCTS BKN045CB OVC120
     FM020900 21011KT 5SM -SHRA BR VCTS OVC015CB=



000
FTUS41 KCLE 011100
TAFERI
TAF
KERI 011120Z 0112/0212 18005KT P6SM SCT012 BKN035
      TEMPO 0112/0115 5SM HZ BKN012
     FM011600 22010KT P6SM BKN045
     FM011800 24012KT P6SM SCT045
     FM012000 22010KT P6SM SCT045 BKN250
     FM020200 18010KT 6SM BR BKN045
     FM020800 22011KT 6SM -SHRA BR VCTS BKN015CB=



000
FTUS41 KCLE 011100
TAFCLE
TAF
KCLE 011120Z 0112/0218 20005KT P6SM BKN012 BKN030
      TEMPO 0112/0115 SCT012 BKN030
     FM011500 21008KT P6SM SCT020 BKN045
      TEMPO 0115/0118 BKN020
     FM011800 21012G18KT P6SM SCT045
     FM020200 20010KT P6SM VCSH SCT035 BKN120
     FM020600 20010KT 5SM HZ VCTS BKN035CB
     FM021200 22012KT 5SM BR BKN050=



000
FTUS41 KCLE 011100
TAFFDY
TAF
KFDY 011120Z 0112/0212 18006KT P6SM BKN025
      TEMPO 0112/0115 5SM BR BKN006
     FM011500 21010KT P6SM BKN025
     FM011700 22012KT P6SM SCT045
     FM012100 23014KT P6SM VCTS BKN045CB
     FM020200 22006KT 6SM HZ VCTS BKN045CB OVC120
     FM020900 23010KT 5SM -SHRA BR VCTS OVC025CB=



000
FTUS41 KCLE 011100
TAFYNG
TAF
KYNG 011120Z 0112/0212 22008KT P6SM SCT008 OVC012
      TEMPO 0112/0115 BKN008
     FM011500 22012KT P6SM SCT012 BKN025
      TEMPO 0115/0118 BKN012
     FM011800 22012KT P6SM BKN035
     FM020200 20009KT P6SM SCT035 BKN120
     FM020800 21008KT 5SM -SHRA BR VCTS BKN012CB=



000
FTUS41 KCLE 011100
TAFCAK
TAF
KCAK 011120Z 0112/0212 22008KT P6SM BKN008 OVC012
      TEMPO 0112/0115 SCT008 OVC012
     FM011500 22012KT P6SM SCT012 BKN025
      TEMPO 0115/0118 BKN012
     FM011800 22012KT P6SM BKN035
     FM020200 20009KT P6SM VCSH SCT035 BKN120
     FM020800 21008KT 5SM -SHRA BR VCTS BKN012CB=



000
FTUS41 KCLE 011000 AAA
TAFFDY
TAF AMD
KFDY 011002Z 0110/0206 18006KT P6SM SCT035
      TEMPO 0110/0113 4SM BR BKN012
     FM011400 21010KT P6SM BKN025
     FM011600 22012KT P6SM SCT045
     FM012100 23014KT P6SM VCTS BKN045CB
     FM020200 22006KT 6SM HZ VCTS BKN045CB OVC120=



000
FTUS41 KCLE 011000 AAC
TAFTOL
TAF AMD
KTOL 011001Z 0110/0206 20003KT P6SM SKC
      TEMPO 0110/0113 4SM BR BKN025
     FM011400 21010KT P6SM BKN025
     FM011600 22012KT P6SM SCT045
     FM012100 23014KT P6SM VCTS BKN045CB
     FM020200 22006KT 6SM HZ VCTS BKN045CB OVC120=



000
FTUS41 KCLE 010900 AAA
TAFERI
TAF AMD
KERI 010906Z 0109/0206 18005KT P6SM SCT006 BKN035
      TEMPO 0109/0113 3SM BR BKN006
     FM011400 19006KT 6SM BR SCT008 BKN012
      TEMPO 0114/0116 5SM HZ BKN008
     FM011600 22010KT P6SM BKN025
     FM011800 24012KT P6SM BKN045
     FM012000 22010KT P6SM SCT045 BKN250
     FM020200 18010KT 6SM BR BKN045=



000
FTUS41 KCLE 010900 AAA
TAFCAK
TAF AMD
KCAK 010905Z 0109/0206 20005KT 6SM BR OVC006
      TEMPO 0109/0113 3SM BR SCT006 OVC025
     FM011300 22008KT 6SM BR SCT008 OVC012
      TEMPO 0113/0115 5SM HZ BKN008
     FM011500 22012KT P6SM SCT015 BKN035
      TEMPO 0115/0118 BKN015
     FM011800 22012KT P6SM BKN045
     FM020200 20009KT P6SM SCT035 BKN120=



000
FTUS41 KCLE 010900 AAB
TAFMFD
TAF AMD
KMFD 010905Z 0109/0206 20005KT P6SM OVC006
      TEMPO 0109/0113 3SM BR OVC003
     FM011500 21012KT P6SM BKN035
     FM011700 20014G20KT P6SM SCT045
     FM020200 22009KT P6SM VCTS BKN045CB OVC120=



000
FTUS41 KCLE 010800 AAA
TAFCLE
TAF AMD
KCLE 010856Z 0109/0212 20005KT P6SM SCT008 BKN050
      TEMPO 0110/0113 5SM BR BKN008
     FM011400 21008KT 6SM HZ SCT012 BKN035
      TEMPO 0114/0116 BKN015
     FM011800 21012G18KT P6SM SCT045
     FM020200 20010KT P6SM SCT035 BKN120
     FM020600 20010KT 6SM HZ VCTS BKN035CB=



000
FTUS41 KCLE 010800 AAA
TAFMFD
TAF AMD
KMFD 010817Z 0108/0206 18008KT P6SM BKN006
      TEMPO 0108/0109 5SM BR OVC006
     FM010900 20005KT 5SM BR OVC006
      TEMPO 0109/0113 2SM BR OVC003
     FM011500 21012KT P6SM BKN035
     FM011700 20014G20KT P6SM SCT045
     FM020200 22009KT P6SM VCTS BKN045CB OVC120=



000
FTUS41 KCLE 010800 AAA
TAFYNG
TAF AMD
KYNG 010811Z 0108/0206 20004KT 6SM BR OVC006
      TEMPO 0108/0109 4SM BR SCT006 OVC035
     FM010900 20004KT 6SM BR OVC006
      TEMPO 0109/0113 1SM BR SCT006 OVC025
     FM011300 22008KT 6SM BR SCT008 OVC012
      TEMPO 0113/0115 5SM HZ BKN008
     FM011500 22012KT P6SM SCT015 BKN035
      TEMPO 0115/0118 BKN015
     FM011800 22012KT P6SM BKN045
     FM020200 20009KT P6SM SCT035 BKN120=



000
FTUS41 KCLE 010800 AAB
TAFTOL
TAF AMD
KTOL 010810Z 0108/0206 20003KT P6SM SKC
     FM011000 20003KT 5SM BR SCT006 BKN012
      TEMPO 0110/0113 3SM BR BKN006
     FM011400 21010KT P6SM BKN025
     FM011600 22012KT P6SM SCT045
     FM012100 23014KT P6SM VCTS BKN045CB
     FM020200 22006KT 6SM HZ VCTS BKN045CB OVC120=



000
FTUS41 KCLE 010700 AAA
TAFTOL
TAF AMD
KTOL 010704Z 0107/0206 20003KT 6SM BR BKN030
      TEMPO 0107/0110 2SM -SHRA BR SCT012 BKN025
     FM011000 20003KT 5SM BR SCT006 BKN012
      TEMPO 0110/0113 3SM BR BKN006
     FM011400 21010KT P6SM BKN025
     FM011600 22012KT P6SM SCT045
     FM012100 23014KT P6SM VCTS BKN045CB
     FM020200 22006KT 6SM HZ VCTS BKN045CB OVC120=



000
FTUS41 KCLE 010500 CCA
TAFYNG
TAF COR
KYNG 010545Z 0106/0206 20004KT 5SM BR OVC004
      TEMPO 0106/0109 3SM BR SCT004 OVC035
     FM010900 20004KT 4SM BR OVC003
      TEMPO 0109/0113 1SM BR SCT003 OVC025
     FM011300 22008KT 6SM BR SCT008 OVC012
      TEMPO 0113/0115 5SM HZ BKN008
     FM011500 22012KT P6SM SCT015 BKN035
      TEMPO 0115/0118 BKN015
     FM011800 22012KT P6SM BKN045
     FM020200 20009KT P6SM SCT035 BKN120=



000
FTUS41 KCLE 010500
TAFERI
TAF
KERI 010520Z 0106/0206 18005KT P6SM SCT003
      TEMPO 0106/0109 5SM BR BKN003
     FM010900 18005KT 5SM BR BKN003
      TEMPO 0109/0113 3SM BR
     FM011400 19006KT 6SM BR SCT008 BKN012
      TEMPO 0114/0116 5SM HZ BKN008
     FM011600 22010KT P6SM BKN025
     FM011800 24012KT P6SM BKN045
     FM012000 22010KT P6SM SCT045 BKN250
     FM020200 18010KT 6SM BR BKN045=



000
FTUS41 KCLE 010500
TAFCAK
TAF
KCAK 010520Z 0106/0206 20008KT 6SM BR OVC005
      TEMPO 0106/0109 4SM BR SCT005 OVC035
     FM010900 20005KT 4SM BR OVC003
      TEMPO 0109/0113 1SM BR SCT003 OVC025
     FM011300 22008KT 6SM BR SCT008 OVC012
      TEMPO 0113/0115 5SM HZ BKN008
     FM011500 22012KT P6SM SCT015 BKN035
      TEMPO 0115/0118 BKN015
     FM011800 22012KT P6SM BKN045
     FM020200 20009KT P6SM SCT035 BKN120=



000
FTUS41 KCLE 010500
TAFYNG
TAF
KYNG 010520Z 0106/0206 20004KT 5SM BR OVC006
      TEMPO 0106/0109 3SM BR SCT006 OVC035
     FM010900 20004KT 4SM BR OVC003
      TEMPO 0109/0113 1SM BR SCT003 OVC025
     FM011300 22008KT 6SM BR SCT008 OVC012
      TEMPO 0113/0115 5SM HZ BKN008
     FM011500 22012KT P6SM SCT015 BKN035
      TEMPO 0115/0118 BKN015
     FM011800 22012KT P6SM BKN045
     FM020200 20009KT P6SM SCT035 BKN120=



000
FTUS41 KCLE 010500
TAFFDY
TAF
KFDY 010520Z 0106/0206 18006KT 6SM BR SCT035
      TEMPO 0108/0110 4SM BR SCT012
     FM011000 20003KT 5SM BR SCT006 BKN012
      TEMPO 0110/0113 3SM BR BKN006
     FM011400 21010KT P6SM BKN025
     FM011600 22012KT P6SM SCT045
     FM012100 23014KT P6SM VCTS BKN045CB
     FM020200 22006KT 6SM HZ VCTS BKN045CB OVC120=



000
FTUS41 KCLE 010500
TAFCLE
TAF
KCLE 010520Z 0106/0212 19006KT P6SM SCT250
      TEMPO 0107/0109 6SM BR
     FM010900 20005KT 6SM BR SCT012 BKN035
      TEMPO 0109/0113 4SM BR BKN012
     FM011400 21008KT 6SM HZ SCT012 BKN035
      TEMPO 0114/0116 BKN015
     FM011800 21012G18KT P6SM SCT045
     FM020200 20010KT P6SM SCT035 BKN120
     FM020600 20010KT 6SM HZ VCTS BKN035CB=



000
FTUS41 KCLE 010500
TAFMFD
TAF
KMFD 010520Z 0106/0206 18008KT P6SM SKC
      TEMPO 0106/0109 5SM BR SCT025
     FM010900 20005KT 4SM BR SCT008 BKN025
      TEMPO 0109/0113 2SM BR BKN008
     FM011500 21012KT P6SM BKN035
     FM011700 20014G20KT P6SM SCT045
     FM020200 22009KT P6SM VCTS BKN045CB OVC120=



000
FTUS41 KCLE 010500
TAFTOL
TAF
KTOL 010520Z 0106/0206 20003KT 6SM BR SKC
      TEMPO 0108/0110 4SM BR SCT012
     FM011000 20003KT 5SM BR SCT006 BKN012
      TEMPO 0110/0113 3SM BR BKN006
     FM011400 21010KT P6SM BKN025
     FM011600 22012KT P6SM SCT045
     FM012100 23014KT P6SM VCTS BKN045CB
     FM020200 22006KT 6SM HZ VCTS BKN045CB OVC120=



000
FTUS41 KCLE 010400 AAA
TAFCAK
TAF AMD
KCAK 010404Z 0104/0124 20007KT P6SM SCT004 BKN045
      TEMPO 0104/0106 BKN004
     FM010600 21005KT 5SM BR SCT004 OVC012
      TEMPO 0106/0109 BKN004
     FM010900 20003KT 2SM BR BKN004 OVC012
     FM011600 20012KT P6SM BKN012=



000
FTUS41 KCLE 010400 AAA
TAFMFD
TAF AMD
KMFD 010402Z 0104/0124 18006KT P6SM SKC
      TEMPO 0106/0108 5SM BR SCT025
     FM010800 20005KT 4SM BR SCT008 BKN025
      TEMPO 0109/0113 2SM BR BKN008
     FM011600 21012G18KT 5SM BR OVC012=



000
FTUS41 KCLE 010300 AAA
TAFYNG
TAF AMD
KYNG 010323Z 0103/0124 20005KT P6SM BKN005
      TEMPO 0103/0106 3SM BR SCT005
     FM010600 21005KT 3SM BR OVC005
     FM011600 20012KT 5SM BR OVC012=



000
FTUS41 KCLE 010200 AAA
TAFCLE
TAF AMD
KCLE 010256Z 0103/0206 18007KT P6SM SCT200
     FM010600 20004KT 5SM BR SCT020
     FM010900 20004KT 3SM BR BKN015
     FM011500 20010KT P6SM OVC020
     FM011800 20012KT P6SM SCT020 BKN040=



000
FTUS41 KCLE 312300
TAFCAK
TAF
KCAK 312336Z 0100/0124 23008KT P6SM SCT020 BKN040
      TEMPO 0100/0103 3SM -SHRA OVC020
     FM010400 21007KT P6SM OVC020
     FM010600 21005KT 5SM BR OVC012
     FM010800 20003KT 2SM BR BKN009 OVC012
     FM011600 20012KT 5SM BR OVC012=



000
FTUS41 KCLE 312300
TAFYNG
TAF
KYNG 312336Z 0100/0124 22008KT P6SM SCT015 OVC035
      TEMPO 0100/0104 3SM -SHRA OVC015
     FM010400 21005KT 5SM BR OVC012
     FM010800 20003KT 2SM BR OVC009
     FM011600 20012KT 5SM BR OVC012=



000
FTUS41 KCLE 312300
TAFFDY
TAF
KFDY 312336Z 0100/0124 21008KT P6SM SCT025 BKN200
     FM010500 20005KT 3SM BR BKN020
     FM010900 20003KT 2SM BR OVC008
     FM011500 21010KT 5SM BR OVC020
     FM011800 22012G18KT P6SM BKN035=



000
FTUS41 KCLE 312300
TAFERI
TAF
KERI 312336Z 0100/0124 21007KT P6SM SCT015 BKN040
     FM010600 20005KT P6SM BKN015 OVC030
     FM010900 20005KT 3SM BR SCT008 OVC012
     FM012000 22012KT P6SM BKN035=



000
FTUS41 KCLE 312300
TAFTOL
TAF
KTOL 312336Z 0100/0124 22008KT P6SM SCT025 BKN200
     FM010500 22005KT 3SM BR BKN020
     FM010900 20003KT 2SM BR OVC008
     FM011500 21010KT 5SM BR OVC020
     FM011800 22012G18KT P6SM BKN035=



000
FTUS41 KCLE 312300
TAFCLE
TAF
KCLE 312336Z 0100/0206 20007KT P6SM SCT020 BKN200
     FM010400 20004KT P6SM BKN020
     FM010800 20004KT 3SM BR SCT009 OVC012
     FM011600 20010KT P6SM OVC020
     FM011900 20012KT P6SM SCT020 BKN040=



000
FTUS41 KCLE 312300
TAFMFD
TAF
KMFD 312336Z 0100/0124 21010KT P6SM SCT020 OVC035
      TEMPO 0100/0102 3SM -SHRA OVC020
     FM010400 20004KT P6SM OVC020
     FM010800 20005KT 2SM BR OVC008
     FM011600 21012G18KT 5SM BR OVC012=



000
FTUS41 KCLE 312200 AAB
TAFMFD
TAF AMD
KMFD 312227Z 3122/0118 21010KT P6SM VCSH SCT020 OVC035
      TEMPO 3122/0102 2SM -SHRA OVC020
     FM010400 20004KT P6SM OVC020
     FM010800 20005KT 2SM BR OVC008
     FM011600 21012G18KT 5SM BR OVC012=



000
FTUS41 KCLE 312200 AAB
TAFCAK
TAF AMD
KCAK 312206Z 3122/0118 22012G18KT P6SM VCSH SCT020 OVC035
      TEMPO 3123/0101 2SM -SHRA OVC020
     FM010300 21007KT P6SM OVC020
     FM010600 21005KT 5SM BR OVC012
     FM010800 20003KT 2SM BR BKN009 OVC012
     FM011600 20010KT 5SM BR OVC012=



000
FTUS41 KCLE 312000 AAB
TAFCLE
TAF AMD
KCLE 312057Z 3121/0124 24008KT P6SM SCT020 BKN050
     FM010400 20005KT P6SM OVC020
     FM010800 20005KT 3SM BR SCT009 OVC012
     FM011600 20010KT P6SM OVC020
     FM011900 20012KT P6SM SCT020 BKN040=



000
FTUS41 KCLE 312000 AAA
TAFERI
TAF AMD
KERI 312001Z 3120/0118 23010KT 6SM BR VCSH SCT015 OVC035
     FM312200 21010KT P6SM SCT020 OVC035
     FM010700 18005KT P6SM SCT015 BKN030=



000
FTUS41 KCLE 312000 AAA
TAFMFD
TAF AMD
KMFD 312000Z 3120/0118 21010KT P6SM SCT015 OVC035
     FM010300 20005KT 3SM BR BKN009
     FM011600 21010KT 5SM BR OVC012=



000
FTUS41 KCLE 311900 AAA
TAFCLE
TAF AMD
KCLE 311931Z 3120/0124 23008KT P6SM SCT020 OVC040
     FM010800 20005KT 3SM BR SCT009 OVC015
     FM011600 20010KT P6SM OVC020
     FM011900 20012KT P6SM SCT020 BKN040=



000
FTUS41 KCLE 311800 AAA
TAFCAK
TAF AMD
KCAK 311858Z 3119/0118 22010KT P6SM VCSH SCT015 OVC035
     FM312200 21005KT P6SM SCT012 SCT020 OVC035
     FM010600 21005KT 5SM BR OVC012
     FM010800 20003KT 2SM BR BKN009 OVC012
     FM011600 20010KT 5SM BR OVC012=



000
FTUS41 KCLE 311800 AAA
TAFFDY
TAF AMD
KFDY 311854Z 3119/0118 23010KT P6SM SCT025 OVC035
     FM010600 24005KT 4SM BR OVC019
     FM010900 20004KT 2SM BR OVC009
     FM011400 22010KT 5SM BR OVC019=



000
FTUS41 KCLE 311800 AAA
TAFTOL
TAF AMD
KTOL 311854Z 3119/0118 24008KT P6SM SCT025 OVC035
     FM010600 24005KT 3SM BR OVC019
     FM010900 20003KT 2SM BR OVC009
     FM011400 22010KT 5SM BR OVC019=



000
FTUS41 KCLE 311800 CCA
TAFERI
TAF COR
KERI 311800Z 3118/0118 23010KT 1SM RA BR BKN015 OVC025
     FM311830 23010KT 5SM -RA BR BKN015 OVC025
     FM312200 21010KT P6SM SCT020 OVC035
     FM010700 18005KT P6SM SCT015 BKN030=



000
FTUS41 KCLE 311700
TAFERI
TAF
KERI 311727Z 3118/0118 23010KT 5SM -RA BR BKN015 OVC025
     FM312200 21010KT P6SM SCT020 OVC035
     FM010700 18005KT P6SM SCT015 BKN030=



000
FTUS41 KCLE 311700
TAFFDY
TAF
KFDY 311727Z 3118/0118 23010KT P6SM SCT025 OVC035
      TEMPO 3118/3120 BKN025 OVC035
     FM010600 24005KT 4SM BR OVC019
     FM010900 20004KT 2SM BR OVC009
     FM011400 22010KT 5SM BR OVC019=



000
FTUS41 KCLE 311700
TAFTOL
TAF
KTOL 311727Z 3118/0118 24008KT P6SM SCT025 OVC035
      TEMPO 3118/3120 BKN025 OVC035
     FM010600 24005KT 3SM BR OVC019
     FM010900 20003KT 2SM BR OVC009
     FM011400 22010KT 5SM BR OVC019=



000
FTUS41 KCLE 311700
TAFCLE
TAF
KCLE 311727Z 3118/0124 22010KT P6SM BKN015 OVC020
     FM312000 20008KT P6SM SCT015 BKN020 OVC040
     FM010800 20005KT 3SM BR SCT009 OVC015
     FM011600 20010KT P6SM OVC020
     FM011900 20012KT P6SM SCT020 BKN040=



000
FTUS41 KCLE 311700
TAFMFD
TAF
KMFD 311727Z 3118/0118 21010KT P6SM SCT015 OVC030
      TEMPO 3118/3120 BKN015 OVC030
     FM010300 20005KT 3SM BR BKN009
     FM011600 21010KT 5SM BR OVC012=



000
FTUS41 KCLE 311700
TAFCAK
TAF
KCAK 311727Z 3118/0118 22010KT P6SM VCSH SCT007 OVC015
     FM312200 21005KT P6SM SCT012 OVC020
     FM010600 21005KT 5SM BR OVC012
     FM010800 20003KT 2SM BR BKN009 OVC012
     FM011600 20010KT 5SM BR OVC012=



000
FTUS41 KCLE 311700
TAFYNG
TAF
KYNG 311727Z 3118/0118 22008KT 6SM -RA BR SCT007 OVC015
      TEMPO 3118/3119 BKN007 OVC015
     FM312200 22008KT P6SM SCT015 OVC020
     FM010600 21005KT 5SM BR OVC012
     FM010800 20003KT 2SM BR OVC009=



000
FTUS41 KCLE 311500 AAB
TAFCAK
TAF AMD
KCAK 311524Z 3115/0112 22010KT 4SM -RA BR BKN006 OVC015
     FM311800 22010KT P6SM VCSH SCT006 OVC015
     FM312200 23010KT P6SM OVC020
     FM010600 21005KT 5SM BR OVC012=



000
FTUS41 KCLE 311400 AAB
TAFCLE
TAF AMD
KCLE 311452Z 3115/0118 22010KT P6SM VCSH BKN020 OVC080
     FM311800 22010KT P6SM OVC020
     FM010800 20005KT 4SM BR BKN015=



000
FTUS41 KCLE 311300 AAA
TAFERI
TAF AMD
KERI 311350Z 3114/0112 22010KT 6SM BR VCSH SCT008 OVC020
     FM311800 21010KT 6SM -SHRA SCT018 OVC035
     FM312200 21010KT P6SM OVC035=



000
FTUS41 KCLE 311300 AAA
TAFCAK
TAF AMD
KCAK 311340Z 3114/0112 22010KT 4SM -RA BR BKN004 OVC015
     FM311800 22010KT P6SM VCSH SCT006 OVC015
     FM312200 23010KT P6SM OVC020
     FM010600 21005KT 5SM BR OVC012=



000
FTUS41 KCLE 311300 AAA
TAFCLE
TAF AMD
KCLE 311339Z 3114/0118 22010KT P6SM FEW008 SCT012 OVC080
     FM311500 22010KT P6SM VCSH BKN012 OVC080
     FM311800 22010KT P6SM OVC020
     FM010800 20005KT 4SM BR BKN015=



000
FTUS41 KCLE 311300 AAA
TAFMFD
TAF AMD
KMFD 311336Z 3114/0112 21010KT 6SM BR VCSH SCT009 OVC030
      TEMPO 3114/3117 BKN009 OVC030
     FM311700 21010KT P6SM VCSH SCT008 OVC015
     FM312300 20008KT P6SM OVC015
     FM010900 20006KT 4SM BR BKN010=



000
FTUS41 KCLE 311300 AAA
TAFFDY
TAF AMD
KFDY 311329Z 3113/0112 23010KT P6SM SCT012 OVC070
      TEMPO 3115/3118 BKN012 OVC070
     FM312100 24010KT P6SM BKN035
     FM010600 24005KT 4SM BR OVC019=



000
FTUS41 KCLE 311300 AAA
TAFTOL
TAF AMD
KTOL 311322Z 3113/0112 24008KT P6SM FEW008 SCT012 OVC070
      TEMPO 3115/3118 BKN012 OVC070
     FM312100 24006KT P6SM BKN035
     FM010600 24005KT 3SM BR OVC019=



000
FTUS41 KCLE 311100
TAFMFD
TAF
KMFD 311140Z 3112/0112 21010KT 6SM BR SCT010 BKN050
     FM311330 21010KT 6SM -SHRA VCTS SCT006CB OVC012
      TEMPO 3114/3117 4SM SHRA BR OVC006
     FM311800 21010KT P6SM VCSH SCT008 OVC015
     FM312300 20008KT P6SM OVC015
     FM010900 20006KT 4SM BR BKN010=



000
FTUS41 KCLE 311100
TAFCLE
TAF
KCLE 311140Z 3112/0118 22010KT P6SM SCT012 OVC035
     FM311300 22010KT P6SM SCT008 OVC012
     FM311500 22010KT 6SM -SHRA VCTS SCT008CB OVC012
     FM311800 22010KT P6SM OVC020
     FM010800 20005KT 4SM BR BKN015=



000
FTUS41 KCLE 311100
TAFFDY
TAF
KFDY 311140Z 3112/0112 23010KT P6SM SCT012 BKN035
     FM311230 23010KT P6SM SCT008 OVC012
      TEMPO 3113/3116 OVC008
     FM311800 24010KT P6SM BKN020
     FM312100 24010KT P6SM BKN035
     FM010900 24005KT 4SM BR SCT035 BKN200=



000
FTUS41 KCLE 311100
TAFYNG
TAF
KYNG 311140Z 3112/0112 21008KT 5SM -SHRA BR SCT006 OVC035
      TEMPO 3112/3113 2SM -SHRA BR
     FM311400 22008KT 5SM -SHRA BR BKN006 OVC015
     FM311800 22008KT P6SM VCTS SCT006CB OVC015
      TEMPO 3118/3122 4SM -SHRA SCT006 OVC015
     FM312300 22008KT P6SM OVC020
     FM010600 21005KT 5SM BR OVC012=



000
FTUS41 KCLE 311100
TAFCAK
TAF
KCAK 311140Z 3112/0112 21008KT 5SM BR SCT006 OVC035
      TEMPO 3112/3114 OVC006
     FM311400 22010KT 5SM -SHRA BR VCTS BKN006CB OVC015
     FM311800 22010KT P6SM VCSH SCT006 OVC015
     FM312200 23010KT P6SM OVC020
     FM010600 21005KT 5SM BR OVC012=



000
FTUS41 KCLE 311100
TAFERI
TAF
KERI 311140Z 3112/0112 21012KT P6SM SCT018 OVC040
     FM311400 21010KT P6SM VCSH SCT008 OVC018
     FM311800 21010KT 6SM -SHRA SCT018 OVC035
     FM312200 21010KT P6SM OVC035=



000
FTUS41 KCLE 311100
TAFTOL
TAF
KTOL 311140Z 3112/0112 21008KT P6SM SCT008 OVC012
      TEMPO 3113/3116 OVC008
     FM311800 24008KT P6SM OVC020
     FM312100 24006KT P6SM BKN035
     FM010900 24005KT 4SM BR SCT035 BKN200=



000
FTUS41 KCLE 311000 AAA
TAFYNG
TAF AMD
KYNG 311050Z 3111/0106 21008KT 5SM -SHRA BR SCT006 OVC035
     FM311300 22008KT 5SM -SHRA BR BKN006 OVC015
     FM311800 22008KT P6SM VCTS SCT006CB OVC015
      TEMPO 3118/3122 4SM -SHRA SCT006 OVC015
     FM312300 22008KT P6SM OVC020=



000
FTUS41 KCLE 311000 AAB
TAFCAK
TAF AMD
KCAK 311041Z 3111/0106 21008KT 5SM -SHRA BR BKN006 OVC025
     FM311400 22010KT 5SM -SHRA BR VCTS BKN006CB OVC015
     FM311800 22010KT P6SM VCSH SCT006 OVC015
     FM312200 23010KT P6SM OVC020=



000
FTUS41 KCLE 311000 AAB
TAFCLE
TAF AMD
KCLE 311031Z 3111/0112 22010KT P6SM SCT012 OVC030
     FM311300 22010KT P6SM SCT008 OVC012
     FM311500 22010KT 6SM -SHRA VCTS SCT008CB OVC012
      TEMPO 3115/3117 4SM SHRA SCT008 OVC012
     FM311800 22010KT P6SM OVC020
     FM010800 20005KT 4SM BR BKN015=



000
FTUS41 KCLE 311000 AAA
TAFMFD
TAF AMD
KMFD 311019Z 3110/0106 21010KT 5SM BR SCT010 BKN050
     FM311330 21010KT 6SM -SHRA VCTS SCT006CB OVC012
      TEMPO 3114/3117 4SM SHRA BR OVC006
     FM311800 21010KT P6SM VCSH SCT008 OVC015
     FM312300 20008KT P6SM OVC015=



000
FTUS41 KCLE 311000 AAA
TAFFDY
TAF AMD
KFDY 311003Z 3110/0106 23010KT P6SM VCSH SCT012 BKN035
     FM311300 23010KT P6SM SCT008 OVC012
      TEMPO 3113/3116 OVC008
     FM311800 24010KT P6SM BKN020
     FM312100 24008KT P6SM BKN035=



000
FTUS41 KCLE 310900 AAA
TAFTOL
TAF AMD
KTOL 310954Z 3110/0106 21008KT P6SM SCT008 OVC012
      TEMPO 3110/3112 6SM -SHRA
     FM311200 23008KT P6SM SCT008 OVC012
      TEMPO 3112/3115 BKN008 OVC012
     FM311700 24008KT P6SM BKN020
     FM312200 24006KT P6SM BKN035=



000
FTUS41 KCLE 310900 AAA
TAFCLE
TAF AMD
KCLE 310913Z 3109/0112 21010KT P6SM SCT030 OVC100
     FM311100 22010KT P6SM SCT012 OVC030
     FM311300 22010KT P6SM VCSH SCT008 OVC012
     FM311800 23010KT P6SM OVC020=



000
FTUS41 KCLE 310800 AAA
TAFCAK
TAF AMD
KCAK 310803Z 3108/0106 23008KT 6SM -SHRA SCT040 OVC060
      TEMPO 3108/3110 3SM SHRA
     FM311100 22010KT P6SM SCT012 OVC030
     FM311300 22010KT P6SM VCSH SCT008 OVC012
      TEMPO 3113/3117 OVC008
     FM312200 23010KT P6SM OVC020=



000
FTUS41 KCLE 310500 CCA
TAFTOL
TAF COR
KTOL 310543Z 3106/0106 21010KT P6SM SCT030 BKN120
     FM310700 22010KT P6SM SCT012 OVC030
     FM311000 23010KT 4SM BR SCT008 OVC012
     FM311400 23010KT P6SM SCT008 OVC012
     FM311700 24010KT P6SM BKN020
     FM312000 24010KT P6SM BKN035=



000
FTUS41 KCLE 310500
TAFTOL
TAF
KTOL 310540Z 3106/0106 21010KT P6SM SCT030 BKN120
     FM310800 22010KT P6SM SCT012 BKN030
     FM311000 23010KT 4SM BR SCT008 OVC012
     FM311400 23010KT P6SM SCT008 OVC012
     FM311700 24010KT P6SM BKN020
     FM312000 24010KT P6SM BKN035=



000
FTUS41 KCLE 310500
TAFCAK
TAF
KCAK 310540Z 3106/0106 23008KT 6SM -SHRA SCT040 OVC100
     FM311000 22010KT P6SM SCT012 OVC030
     FM311200 22010KT P6SM VCSH SCT008 OVC012
      TEMPO 3112/3116 OVC008
     FM312200 23010KT P6SM OVC020=



000
FTUS41 KCLE 310500
TAFFDY
TAF
KFDY 310540Z 3106/0106 21010KT P6SM SCT030 BKN120
     FM310800 22010KT P6SM SCT012 BKN030
     FM311000 23010KT 4SM BR SCT008 OVC012
     FM311400 23010KT P6SM SCT008 OVC012
     FM311600 24010KT P6SM BKN020
     FM312000 24010KT P6SM BKN035=



000
FTUS41 KCLE 310500
TAFYNG
TAF
KYNG 310540Z 3106/0106 23008KT 6SM -SHRA SCT040 OVC100
     FM311000 22010KT P6SM VCSH SCT012 OVC030
     FM311200 22010KT P6SM VCSH SCT008 OVC012
      TEMPO 3112/3116 OVC008
     FM312200 23010KT P6SM OVC020=



000
FTUS41 KCLE 310500
TAFERI
TAF
KERI 310540Z 3106/0106 21012KT 6SM -SHRA SCT040 OVC080
     FM311000 21010KT P6SM VCSH SCT020 OVC040
     FM311400 21010KT P6SM VCSH OVC020
     FM312000 21012KT P6SM OVC030=



000
FTUS41 KCLE 310500
TAFCLE
TAF
KCLE 310540Z 3106/0112 21010KT P6SM VCSH SCT040 OVC100
     FM311000 22010KT P6SM SCT012 OVC030
     FM311200 22010KT P6SM VCSH SCT008 OVC012
     FM311800 23010KT P6SM OVC020=



000
FTUS41 KCLE 310500
TAFMFD
TAF
KMFD 310540Z 3106/0106 21012KT 6SM -SHRA SCT040 OVC100
     FM310800 21012KT P6SM SCT030 OVC080
     FM311000 21010KT 4SM BR SCT012 OVC030
     FM311200 21010KT 4SM BR VCSH SCT006 OVC012
      TEMPO 3112/3116 OVC006
     FM311600 21010KT P6SM VCSH SCT008 OVC015=



000
FTUS41 KCLE 310200 AAA
TAFCLE
TAF AMD
KCLE 310245Z 3103/0106 20011KT P6SM VCSH SCT040 BKN080
     FM311000 22009KT 5SM -SHRA OVC025
     FM311400 23009KT 4SM BR VCSH OVC015
     FM311800 23009KT P6SM BKN025=



000
FTUS41 KCLE 310200 AAA
TAFMFD
TAF AMD
KMFD 310243Z 3103/3124 21012G20KT P6SM VCSH SCT050 BKN120
     FM310900 23008KT 4SM -SHRA BR OVC020
     FM311600 21010KT P6SM VCSH BKN025=



000
FTUS41 KCLE 310200 AAA
TAFTOL
TAF AMD
KTOL 310228Z 3102/3124 21012G18KT P6SM SCT035 OVC120
     FM310600 21012KT 6SM -SHRA VCTS SCT015CB BKN035 OVC080
     FM310900 23007KT 4SM BR OVC012
     FM311600 24010KT P6SM BKN025
     FM312000 24010KT P6SM BKN035=



000
FTUS41 KCLE 310200 AAA
TAFYNG
TAF AMD
KYNG 310222Z 3102/3124 18011KT P6SM SCT040 BKN080
     FM310600 21009KT 6SM -SHRA BKN035 OVC060
     FM310900 22007KT 4SM -SHRA BR SCT012 OVC025
     FM311300 23010KT 3SM BR VCSH OVC012
     FM311800 23010KT P6SM BKN020=



000
FTUS41 KCLE 310200 AAA
TAFCAK
TAF AMD
KCAK 310221Z 3102/3124 21011KT P6SM SCT040 OVC080
     FM310500 21008KT 6SM -SHRA BKN035 OVC060
     FM310900 22008KT 4SM -SHRA BR SCT012 OVC025
     FM311200 23010KT 3SM BR VCSH OVC012
     FM311800 22010KT P6SM BKN020=



    US Dept of Commerce
    National Oceanic and Atmospheric Administration
    National Weather Service
    1325 East West Highway
    Silver Spring, MD 20910
    Page Author: NWS Internet Services Team
Disclaimer
Information Quality
Credits
Glossary
Privacy Policy
Freedom of Information Act (FOIA)
About Us
Career Opportunities